createdAt,value
2022-07-26T00:02:57.999Z,53.60
2022-07-26T00:08:10.806Z,53.50
2022-07-26T00:13:14.093Z,53.60
2022-07-26T00:18:17.822Z,53.60
2022-07-26T00:23:20.902Z,53.70
2022-07-26T00:28:23.901Z,53.90
2022-07-26T00:33:26.725Z,54.00
2022-07-26T00:38:29.681Z,54.10
2022-07-26T00:43:33.145Z,54.30
2022-07-26T00:48:36.195Z,54.50
2022-07-26T00:53:39.102Z,54.80
2022-07-26T00:58:44.402Z,55.10
2022-07-26T01:03:53.239Z,55.20
2022-07-26T01:08:56.358Z,55.30
2022-07-26T01:13:59.229Z,55.20
2022-07-26T01:19:02.834Z,54.90
2022-07-26T01:24:06.628Z,55.00
2022-07-26T01:29:09.960Z,55.20
2022-07-26T01:34:13.033Z,55.20
2022-07-26T01:39:15.791Z,55.10
2022-07-26T01:44:18.722Z,55.30
2022-07-26T01:49:21.973Z,55.40
2022-07-26T01:54:24.901Z,55.60
2022-07-26T01:59:27.733Z,55.80
2022-07-26T02:04:49.464Z,56.00
2022-07-26T02:09:52.279Z,56.30
2022-07-26T02:14:56.136Z,56.40
2022-07-26T02:19:59.407Z,56.50
2022-07-26T02:25:05.327Z,56.80
2022-07-26T02:30:09.567Z,57.00
2022-07-26T02:35:12.776Z,57.10
2022-07-26T02:40:19.330Z,57.20
2022-07-26T02:45:22.637Z,57.30
2022-07-26T02:50:27.993Z,57.30
2022-07-26T02:55:31.331Z,57.40
2022-07-26T03:00:34.291Z,57.30
2022-07-26T03:05:37.099Z,57.20
2022-07-26T03:10:40.099Z,57.20
2022-07-26T03:15:42.942Z,57.30
2022-07-26T03:20:47.048Z,57.30
2022-07-26T03:25:50.069Z,57.50
2022-07-26T03:30:52.901Z,57.50
2022-07-26T03:35:55.861Z,57.70
2022-07-26T03:40:58.875Z,57.80
2022-07-26T03:46:02.214Z,57.80
2022-07-26T03:51:05.265Z,57.80
2022-07-26T03:56:26.770Z,58.00
2022-07-26T04:01:30.182Z,58.10
2022-07-26T04:06:33.066Z,58.20
2022-07-26T04:11:36.033Z,58.70
2022-07-26T04:16:43.458Z,58.50
2022-07-26T04:21:46.939Z,58.20
2022-07-26T04:26:49.698Z,57.80
2022-07-26T04:31:52.669Z,57.60
2022-07-26T04:36:55.547Z,57.30
2022-07-26T04:41:58.361Z,57.30
2022-07-26T04:47:01.237Z,57.50
2022-07-26T04:52:04.520Z,57.70
2022-07-26T04:57:07.359Z,57.80
2022-07-26T05:02:10.715Z,57.40
2022-07-26T05:07:13.680Z,56.00
2022-07-26T05:12:16.546Z,54.90
2022-07-26T05:17:19.455Z,55.00
2022-07-26T05:22:23.432Z,54.90
2022-07-26T05:27:26.295Z,53.70
2022-07-26T05:32:29.483Z,52.50
2022-07-26T05:37:32.292Z,52.00
2022-07-26T05:42:35.130Z,51.70
2022-07-26T05:47:38.075Z,51.50
2022-07-26T05:52:40.848Z,54.50
2022-07-26T05:57:47.462Z,57.50
2022-07-26T06:02:52.677Z,58.20
2022-07-26T06:07:55.598Z,58.10
2022-07-26T06:12:59.780Z,58.00
2022-07-26T06:18:02.724Z,57.90
2022-07-26T06:23:05.621Z,57.60
2022-07-26T06:28:10.945Z,57.40
2022-07-26T06:33:13.959Z,57.20
2022-07-26T06:38:16.772Z,57.30
2022-07-26T06:43:20.735Z,57.40
2022-07-26T06:48:23.627Z,57.30
2022-07-26T06:53:26.387Z,57.10
2022-07-26T06:58:29.502Z,57.10
2022-07-26T07:03:32.292Z,57.10
2022-07-26T07:08:35.524Z,57.40
2022-07-26T07:13:38.408Z,57.30
2022-07-26T07:18:41.546Z,57.20
2022-07-26T07:23:44.985Z,57.10
2022-07-26T07:28:48.647Z,56.70
2022-07-26T07:33:53.539Z,56.30
2022-07-26T07:38:56.717Z,56.40
2022-07-26T07:44:00.783Z,56.80
2022-07-26T07:49:03.933Z,56.80
2022-07-26T07:54:06.805Z,57.10
2022-07-26T07:59:10.261Z,57.20
2022-07-26T08:04:13.587Z,57.30
2022-07-26T08:09:16.614Z,57.90
2022-07-26T08:14:19.845Z,58.60
2022-07-26T08:19:22.714Z,59.20
2022-07-26T08:24:25.520Z,59.50
2022-07-26T08:29:28.664Z,59.50
2022-07-26T08:34:31.748Z,59.80
2022-07-26T08:39:35.032Z,60.10
2022-07-26T08:44:40.903Z,60.30
2022-07-26T08:49:44.601Z,59.70
2022-07-26T08:54:51.170Z,59.90
2022-07-26T09:00:29.744Z,60.40
2022-07-26T09:05:37.331Z,60.20
2022-07-26T09:10:40.220Z,60.20
2022-07-26T09:15:43.281Z,60.00
2022-07-26T09:20:48.052Z,59.70
2022-07-26T09:25:51.547Z,59.40
2022-07-26T09:31:02.076Z,59.30
2022-07-26T09:36:07.701Z,59.40
2022-07-26T09:41:37.871Z,59.60
2022-07-26T09:46:58.898Z,59.70
2022-07-26T09:52:02.007Z,60.40
2022-07-26T09:57:04.992Z,60.60
2022-07-26T10:02:07.914Z,64.00
2022-07-26T10:07:11.291Z,68.90
2022-07-26T10:12:17.062Z,74.50
2022-07-26T10:17:31.641Z,79.60
2022-07-26T10:22:52.892Z,85.00
2022-07-26T10:27:58.156Z,88.30
2022-07-26T10:33:10.332Z,91.10
2022-07-26T10:38:27.601Z,93.30
2022-07-26T10:43:41.059Z,95.80
2022-07-26T10:49:18.647Z,97.60
2022-07-26T10:54:21.664Z,99.90
2022-07-26T10:59:54.691Z,99.90
2022-07-26T11:05:31.678Z,99.90
2022-07-26T11:10:43.318Z,99.90
2022-07-26T11:16:03.131Z,99.90
2022-07-26T11:21:17.512Z,99.90
2022-07-26T11:26:25.732Z,99.90
2022-07-26T11:31:49.371Z,99.90
2022-07-26T11:36:58.878Z,99.90
2022-07-26T11:42:08.715Z,99.90
2022-07-26T11:47:25.527Z,99.90
2022-07-26T11:52:31.334Z,99.90
2022-07-26T11:57:34.420Z,99.90
2022-07-26T12:02:37.272Z,99.90
2022-07-26T12:07:52.586Z,99.90
2022-07-26T12:13:17.261Z,99.90
2022-07-26T12:18:32.764Z,99.90
2022-07-26T12:23:50.003Z,99.90
2022-07-26T12:28:53.726Z,99.90
2022-07-26T12:33:57.244Z,99.90
2022-07-26T12:39:01.196Z,99.90
2022-07-26T12:44:06.388Z,99.90
2022-07-26T12:49:09.250Z,99.90
2022-07-26T12:54:12.378Z,99.90
2022-07-26T12:59:17.691Z,99.90
2022-07-26T13:04:20.949Z,99.90
2022-07-26T13:09:23.810Z,99.90
2022-07-26T13:14:26.993Z,99.90
2022-07-26T13:19:29.941Z,99.90
2022-07-26T13:24:34.562Z,99.90
2022-07-26T13:29:39.505Z,99.90
2022-07-26T13:34:43.597Z,99.90
2022-07-26T13:39:46.505Z,99.90
2022-07-26T13:44:49.285Z,99.90
2022-07-26T13:49:52.141Z,99.90
2022-07-26T13:54:55.465Z,99.90
2022-07-26T13:59:58.235Z,99.90
2022-07-26T14:05:01.035Z,99.80
2022-07-26T14:10:04.543Z,99.60
2022-07-26T14:15:16.665Z,99.20
2022-07-26T14:20:22.665Z,98.70
2022-07-26T14:25:27.730Z,97.80
2022-07-26T14:30:30.777Z,97.00
2022-07-26T14:35:33.642Z,95.20
2022-07-26T14:40:37.046Z,95.50
2022-07-26T14:45:39.971Z,95.60
2022-07-26T14:51:08.228Z,95.80
2022-07-26T14:56:06.254Z,96.40
2022-07-26T15:01:09.299Z,97.20
2022-07-26T15:06:12.272Z,97.60
2022-07-26T15:11:15.984Z,97.70
2022-07-26T15:16:19.002Z,97.90
2022-07-26T15:21:22.023Z,98.10
2022-07-26T15:26:25.014Z,97.70
2022-07-26T15:31:36.749Z,97.20
2022-07-26T15:36:41.115Z,96.20
2022-07-26T15:41:44.147Z,96.10
2022-07-26T15:46:48.579Z,96.00
2022-07-26T15:51:51.661Z,95.60
2022-07-26T15:56:54.733Z,95.40
2022-07-26T16:01:58.384Z,95.30
2022-07-26T16:07:02.286Z,95.30
2022-07-26T16:12:06.377Z,95.20
2022-07-26T16:17:09.289Z,94.70
2022-07-26T16:22:12.062Z,94.50
2022-07-26T16:27:15.005Z,94.20
2022-07-26T16:32:18.026Z,94.00
2022-07-26T16:37:21.182Z,93.70
2022-07-26T16:42:24.282Z,93.50
2022-07-26T16:47:27.116Z,92.90
2022-07-26T16:52:30.052Z,91.50
2022-07-26T16:57:32.938Z,91.50
2022-07-26T17:02:36.645Z,91.40
2022-07-26T17:07:39.591Z,91.10
2022-07-26T17:12:42.476Z,90.50
2022-07-26T17:17:49.027Z,90.00
2022-07-26T17:22:52.309Z,90.20
2022-07-26T17:27:55.266Z,90.60
2022-07-26T17:32:58.861Z,90.90
2022-07-26T17:38:02.225Z,91.30
2022-07-26T17:43:06.433Z,91.60
2022-07-26T17:48:09.600Z,91.80
2022-07-26T17:53:12.679Z,91.90
2022-07-26T17:58:15.546Z,92.00
2022-07-26T18:03:18.632Z,92.20
2022-07-26T18:08:27.203Z,92.50
2022-07-26T18:13:30.321Z,92.60
2022-07-26T18:18:33.601Z,92.90
2022-07-26T18:23:36.874Z,93.00
2022-07-26T18:28:40.675Z,93.40
2022-07-26T18:33:45.018Z,93.70
2022-07-26T18:38:49.363Z,93.90
2022-07-26T18:43:52.233Z,94.00
2022-07-26T18:48:55.094Z,94.20
2022-07-26T18:54:00.480Z,94.40
2022-07-26T18:59:04.047Z,94.60
2022-07-26T19:04:07.592Z,94.70
2022-07-26T19:09:10.960Z,94.90
2022-07-26T19:14:15.599Z,94.90
2022-07-26T19:19:18.454Z,95.00
2022-07-26T19:24:21.330Z,95.20
2022-07-26T19:29:24.449Z,95.40
2022-07-26T19:34:27.966Z,95.50
2022-07-26T19:39:31.489Z,95.60
2022-07-26T19:44:34.353Z,95.80
2022-07-26T19:49:37.312Z,95.80
2022-07-26T19:54:41.075Z,96.00
2022-07-26T19:59:44.334Z,96.20
2022-07-26T20:04:47.121Z,96.40
2022-07-26T20:09:51.406Z,96.50
2022-07-26T20:14:54.186Z,96.50
2022-07-26T20:19:57.177Z,96.50
2022-07-26T20:25:00.112Z,96.60
2022-07-26T20:30:03.567Z,96.70
2022-07-26T20:35:07.089Z,96.80
2022-07-26T20:40:12.588Z,96.80
2022-07-26T20:45:18.741Z,96.80
2022-07-26T20:50:23.222Z,96.70
2022-07-26T20:55:27.243Z,96.70
2022-07-26T21:00:30.354Z,96.60
2022-07-26T21:05:33.290Z,96.50
2022-07-26T21:10:36.733Z,96.50
2022-07-26T21:15:39.729Z,96.60
2022-07-26T21:20:42.782Z,96.50
2022-07-26T21:25:45.722Z,96.40
2022-07-26T21:30:49.490Z,96.40
2022-07-26T21:35:53.181Z,96.30
2022-07-26T21:40:56.028Z,96.10
2022-07-26T21:45:59.111Z,95.90
2022-07-26T21:51:01.999Z,95.90
2022-07-26T21:56:05.661Z,95.60
2022-07-26T22:01:11.244Z,95.10
2022-07-26T22:06:14.303Z,94.50
2022-07-26T22:11:17.077Z,94.10
2022-07-26T22:16:21.140Z,93.90
2022-07-26T22:21:23.953Z,93.70
2022-07-26T22:26:31.090Z,93.60
2022-07-26T22:31:35.298Z,93.40
2022-07-26T22:36:43.474Z,93.10
2022-07-26T22:42:13.653Z,92.10
2022-07-26T22:47:11.019Z,86.70
2022-07-26T22:52:13.838Z,85.20
2022-07-26T22:57:16.654Z,83.00
2022-07-26T23:02:19.531Z,81.30
2022-07-26T23:07:22.419Z,79.70
2022-07-26T23:12:25.416Z,78.80
2022-07-26T23:17:28.327Z,78.00
2022-07-26T23:22:31.097Z,77.30
2022-07-26T23:27:33.927Z,76.00
2022-07-26T23:32:36.803Z,75.30
2022-07-26T23:37:40.173Z,75.00
2022-07-26T23:42:42.895Z,74.10
2022-07-26T23:47:45.849Z,73.90
2022-07-26T23:52:48.705Z,73.50
2022-07-26T23:57:51.513Z,72.70
